Terminal Aerodrome Forecast
Issued by NWS Pueblo, CO

Home | Current Version | Previous Version | Text Only | Print | Product List | Glossary On
Versions: 1 2 3 4 5 6 7 8 9 10 11 12 13 14 15 16 17 18 19 20 21 22 23 24 25 26 27 28 29 30 31 32
000
FTUS45 KPUB 112320
TAFCOS
TAF
KCOS 112320Z 1200/1224 09013KT P6SM VCTS SCT080CB BKN140
     FM120100 36012KT P6SM SCT100 BKN140
     FM121600 04012KT P6SM FEW080 SCT140
     FM122000 02015G25KT P6SM VCTS SCT050CB BKN100=

USA.gov is the U.S. government's official web portal to all federal, state and local government web resources and services.